FDB353 OMDB-OPIS
Flight info
| Callsign | FDB353 |
|---|---|
| Flight time | N/A |
| Altitude | 33000 |
| Route | ANVIX L223 TARDI DCT MUSUK T511 MCT T500 VUSET R462 EGTAL B505 PG G325 HANGU J139 KALMI |
| Aircraft | B738/M-SDE2E3FGHIRWXY/LB1 |
Departure
| Time | N/A |
|---|---|
| Airport | Dubai International Airport (OMDB) |
Arrival
| Time | 2026-04-29 16:55 |
|---|---|
| Airport | Islamabad International Airport (OPIS) |
| Time | Latitude | Longitude | Altitude | Speed | Heading |
|---|---|---|---|---|---|
| 2026-04-29 16:07 | 33.54804 | 72.21991 | 14763 ft | 419 kts | 89° |
| 2026-04-29 16:07 | 33.54784 | 72.26700 | 14254 ft | 416 kts | 89° |
| 2026-04-29 16:07 | 33.54771 | 72.30234 | 13870 ft | 414 kts | 89° |
| 2026-04-29 16:08 | 33.54757 | 72.33694 | 13492 ft | 411 kts | 89° |
| 2026-04-29 16:08 | 33.54743 | 72.37107 | 13109 ft | 403 kts | 89° |
| 2026-04-29 16:08 | 33.54681 | 72.40434 | 12720 ft | 383 kts | 94° |
| 2026-04-29 16:08 | 33.54090 | 72.43485 | 12399 ft | 361 kts | 110° |
| 2026-04-29 16:09 | 33.53109 | 72.46220 | 12070 ft | 341 kts | 113° |
| 2026-04-29 16:09 | 33.52177 | 72.48800 | 11738 ft | 323 kts | 111° |
| 2026-04-29 16:09 | 33.51321 | 72.51247 | 11408 ft | 308 kts | 112° |
| 2026-04-29 16:09 | 33.50484 | 72.53606 | 11090 ft | 306 kts | 112° |
| 2026-04-29 16:10 | 33.49641 | 72.55968 | 10763 ft | 306 kts | 112° |
| 2026-04-29 16:10 | 33.48949 | 72.58431 | 10425 ft | 304 kts | 100° |
| 2026-04-29 16:10 | 33.48618 | 72.60940 | 10102 ft | 302 kts | 97° |
| 2026-04-29 16:10 | 33.48275 | 72.63461 | 9770 ft | 301 kts | 99° |
| 2026-04-29 16:11 | 33.47915 | 72.65949 | 9441 ft | 299 kts | 99° |
| 2026-04-29 16:11 | 33.47567 | 72.68407 | 9115 ft | 298 kts | 99° |
| 2026-04-29 16:11 | 33.47216 | 72.70889 | 8785 ft | 297 kts | 99° |
| 2026-04-29 16:11 | 33.46865 | 72.73357 | 8455 ft | 296 kts | 99° |
| 2026-04-29 16:12 | 33.46518 | 72.75806 | 8126 ft | 294 kts | 99° |
| 2026-04-29 16:12 | 33.46287 | 72.77430 | 7906 ft | 294 kts | 100° |
| 2026-04-29 16:12 | 33.45822 | 72.80693 | 7464 ft | 292 kts | 100° |
| 2026-04-29 16:12 | 33.45480 | 72.83089 | 7137 ft | 290 kts | 100° |
| 2026-04-29 16:13 | 33.45134 | 72.85508 | 6805 ft | 288 kts | 100° |
| 2026-04-29 16:13 | 33.44793 | 72.87892 | 6477 ft | 287 kts | 100° |
| 2026-04-29 16:13 | 33.44450 | 72.90288 | 6146 ft | 285 kts | 100° |
| 2026-04-29 16:13 | 33.44117 | 72.92608 | 6086 ft | 279 kts | 100° |
| 2026-04-29 16:14 | 33.43781 | 72.94946 | 6094 ft | 285 kts | 100° |
| 2026-04-29 16:14 | 33.43438 | 72.97330 | 6092 ft | 285 kts | 100° |
| 2026-04-29 16:14 | 33.43097 | 72.99693 | 6092 ft | 285 kts | 100° |
| 2026-04-29 16:14 | 33.42755 | 73.02068 | 6091 ft | 285 kts | 100° |
| 2026-04-29 16:15 | 33.42416 | 73.04418 | 6091 ft | 285 kts | 100° |
| 2026-04-29 16:15 | 33.42073 | 73.06791 | 6095 ft | 284 kts | 100° |
| 2026-04-29 16:15 | 33.41738 | 73.09099 | 6087 ft | 273 kts | 100° |
| 2026-04-29 16:15 | 33.41411 | 73.11362 | 6088 ft | 272 kts | 100° |
| 2026-04-29 16:16 | 33.40878 | 73.13547 | 6081 ft | 274 kts | 117° |
| 2026-04-29 16:16 | 33.39646 | 73.15294 | 6081 ft | 275 kts | 143° |
| 2026-04-29 16:16 | 33.37922 | 73.16303 | 6000 ft | 264 kts | 165° |
| 2026-04-29 16:16 | 33.36138 | 73.16597 | 5982 ft | 254 kts | 172° |
| 2026-04-29 16:17 | 33.34343 | 73.16875 | 5993 ft | 261 kts | 171° |
| 2026-04-29 16:17 | 33.32522 | 73.17169 | 5993 ft | 261 kts | 171° |
| 2026-04-29 16:17 | 33.30707 | 73.17359 | 5991 ft | 260 kts | 181° |
| 2026-04-29 16:17 | 33.28916 | 73.16830 | 5996 ft | 263 kts | 206° |
| 2026-04-29 16:18 | 33.27464 | 73.15457 | 5994 ft | 265 kts | 229° |
| 2026-04-29 16:18 | 33.26552 | 73.13538 | 5992 ft | 267 kts | 252° |
| 2026-04-29 16:18 | 33.26379 | 73.11294 | 5994 ft | 268 kts | 277° |
| 2026-04-29 16:18 | 33.26968 | 73.09165 | 5992 ft | 269 kts | 301° |
| 2026-04-29 16:19 | 33.28200 | 73.07494 | 5993 ft | 267 kts | 325° |
| 2026-04-29 16:19 | 33.29901 | 73.06575 | 5994 ft | 266 kts | 349° |
| 2026-04-29 16:19 | 33.31762 | 73.06522 | 5992 ft | 263 kts | 12° |
| 2026-04-29 16:19 | 33.33467 | 73.07353 | 5993 ft | 261 kts | 36° |
| 2026-04-29 16:20 | 33.34733 | 73.08892 | 5992 ft | 259 kts | 58° |
| 2026-04-29 16:20 | 33.35461 | 73.10910 | 5996 ft | 258 kts | 73° |
| 2026-04-29 16:20 | 33.36050 | 73.12943 | 5988 ft | 259 kts | 64° |
| 2026-04-29 16:20 | 33.37213 | 73.14645 | 5996 ft | 261 kts | 38° |
| 2026-04-29 16:21 | 33.38810 | 73.15697 | 5991 ft | 263 kts | 19° |
| 2026-04-29 16:21 | 33.40633 | 73.15950 | 5993 ft | 265 kts | 353° |
| 2026-04-29 16:21 | 33.42405 | 73.15220 | 5994 ft | 267 kts | 330° |
| 2026-04-29 16:21 | 33.43846 | 73.13756 | 5991 ft | 268 kts | 307° |
| 2026-04-29 16:22 | 33.44617 | 73.11719 | 5995 ft | 268 kts | 280° |
| 2026-04-29 16:22 | 33.44645 | 73.09467 | 5993 ft | 268 kts | 259° |
| 2026-04-29 16:22 | 33.43966 | 73.07393 | 5992 ft | 266 kts | 233° |
| 2026-04-29 16:22 | 33.42615 | 73.05881 | 5996 ft | 264 kts | 211° |
| 2026-04-29 16:23 | 33.40914 | 73.05080 | 5993 ft | 259 kts | 191° |
| 2026-04-29 16:23 | 33.39087 | 73.05105 | 5996 ft | 262 kts | 172° |
| 2026-04-29 16:23 | 33.37270 | 73.05426 | 5990 ft | 262 kts | 174° |
| 2026-04-29 16:23 | 33.35446 | 73.05690 | 5992 ft | 262 kts | 174° |
| 2026-04-29 16:24 | 33.33605 | 73.05969 | 5991 ft | 262 kts | 174° |
| 2026-04-29 16:24 | 33.31784 | 73.06291 | 5992 ft | 260 kts | 166° |
| 2026-04-29 16:24 | 33.30132 | 73.07142 | 5991 ft | 257 kts | 140° |
| 2026-04-29 16:24 | 33.28986 | 73.08805 | 5999 ft | 257 kts | 120° |
| 2026-04-29 16:25 | 33.28291 | 73.10780 | 5988 ft | 257 kts | 101° |
| 2026-04-29 16:25 | 33.28413 | 73.12923 | 5995 ft | 258 kts | 70° |
| 2026-04-29 16:25 | 33.29207 | 73.14868 | 5992 ft | 260 kts | 58° |
| 2026-04-29 16:25 | 33.30492 | 73.16402 | 5992 ft | 262 kts | 29° |
| 2026-04-29 16:26 | 33.32266 | 73.16967 | 6000 ft | 265 kts | 6° |
| 2026-04-29 16:26 | 33.34130 | 73.16937 | 5990 ft | 266 kts | 354° |
| 2026-04-29 16:26 | 33.36000 | 73.16637 | 5989 ft | 265 kts | 353° |
| 2026-04-29 16:26 | 33.37861 | 73.16355 | 5993 ft | 265 kts | 354° |
| 2026-04-29 16:27 | 33.39690 | 73.16078 | 5992 ft | 265 kts | 353° |
| 2026-04-29 16:27 | 33.41540 | 73.15700 | 5989 ft | 266 kts | 342° |
| 2026-04-29 16:27 | 33.43141 | 73.14540 | 5992 ft | 267 kts | 312° |
| 2026-04-29 16:27 | 33.44075 | 73.12601 | 5996 ft | 268 kts | 287° |
| 2026-04-29 16:28 | 33.44304 | 73.10387 | 5991 ft | 268 kts | 262° |
| 2026-04-29 16:28 | 33.43627 | 73.08314 | 5995 ft | 266 kts | 231° |
| 2026-04-29 16:28 | 33.42248 | 73.06820 | 5993 ft | 264 kts | 209° |
| 2026-04-29 16:28 | 33.40514 | 73.06128 | 5995 ft | 262 kts | 184° |
| 2026-04-29 16:29 | 33.38683 | 73.06414 | 5996 ft | 259 kts | 166° |
| 2026-04-29 16:29 | 33.36877 | 73.06754 | 5991 ft | 260 kts | 174° |
| 2026-04-29 16:29 | 33.35067 | 73.06951 | 5992 ft | 260 kts | 173° |
| 2026-04-29 16:29 | 33.33242 | 73.07209 | 5991 ft | 260 kts | 172° |
| 2026-04-29 16:30 | 33.31439 | 73.07616 | 5990 ft | 259 kts | 159° |
| 2026-04-29 16:30 | 33.29930 | 73.08794 | 5994 ft | 257 kts | 130° |
| 2026-04-29 16:30 | 33.29055 | 73.10671 | 5995 ft | 257 kts | 108° |
| 2026-04-29 16:30 | 33.28811 | 73.12813 | 5990 ft | 258 kts | 83° |
| 2026-04-29 16:31 | 33.29486 | 73.14819 | 5997 ft | 260 kts | 54° |
| 2026-04-29 16:31 | 33.30764 | 73.16355 | 5991 ft | 262 kts | 35° |
| 2026-04-29 16:31 | 33.32479 | 73.17110 | 5993 ft | 264 kts | 3° |
| 2026-04-29 16:31 | 33.34317 | 73.16770 | 5998 ft | 267 kts | 346° |
| 2026-04-29 16:32 | 33.36166 | 73.16391 | 5991 ft | 265 kts | 357° |
| 2026-04-29 16:32 | 33.37404 | 73.16306 | 5992 ft | 265 kts | 357° |
| 2026-04-29 16:32 | 33.39882 | 73.16007 | 5992 ft | 265 kts | 354° |
| 2026-04-29 16:32 | 33.41700 | 73.15609 | 5990 ft | 266 kts | 341° |
| 2026-04-29 16:33 | 33.44115 | 73.12425 | 5998 ft | 268 kts | 284° |
| 2026-04-29 16:33 | 33.44269 | 73.10172 | 5991 ft | 268 kts | 261° |
| 2026-04-29 16:33 | 33.43554 | 73.08141 | 5995 ft | 266 kts | 229° |
| 2026-04-29 16:34 | 33.42108 | 73.06753 | 5994 ft | 264 kts | 206° |
| 2026-04-29 16:34 | 33.40346 | 73.06113 | 5991 ft | 262 kts | 182° |
| 2026-04-29 16:34 | 33.38530 | 73.06358 | 5996 ft | 259 kts | 168° |
| 2026-04-29 16:34 | 33.36718 | 73.06678 | 5991 ft | 260 kts | 172° |
| 2026-04-29 16:35 | 33.34914 | 73.06936 | 5991 ft | 260 kts | 172° |
| 2026-04-29 16:35 | 33.33078 | 73.07216 | 5991 ft | 260 kts | 171° |
| 2026-04-29 16:35 | 33.31310 | 73.07661 | 5991 ft | 259 kts | 156° |
| 2026-04-29 16:35 | 33.29848 | 73.08925 | 5995 ft | 257 kts | 128° |
| 2026-04-29 16:36 | 33.28998 | 73.10841 | 5994 ft | 257 kts | 107° |
| 2026-04-29 16:36 | 33.28830 | 73.12961 | 5991 ft | 258 kts | 80° |
| 2026-04-29 16:36 | 33.29561 | 73.14938 | 5998 ft | 260 kts | 53° |
| 2026-04-29 16:36 | 33.30873 | 73.16454 | 5990 ft | 262 kts | 33° |
| 2026-04-29 16:37 | 33.32627 | 73.17105 | 5995 ft | 265 kts | 0° |
| 2026-04-29 16:37 | 33.34474 | 73.16736 | 5996 ft | 266 kts | 348° |
| 2026-04-29 16:37 | 33.36315 | 73.16429 | 5992 ft | 265 kts | 357° |
| 2026-04-29 16:37 | 33.37550 | 73.16322 | 5991 ft | 265 kts | 356° |
| 2026-04-29 16:38 | 33.40044 | 73.15994 | 5991 ft | 265 kts | 354° |
| 2026-04-29 16:38 | 33.41867 | 73.15543 | 5991 ft | 266 kts | 339° |
| 2026-04-29 16:38 | 33.43378 | 73.14248 | 5994 ft | 267 kts | 308° |
| 2026-04-29 16:38 | 33.44168 | 73.12203 | 5996 ft | 269 kts | 282° |
| 2026-04-29 16:39 | 33.44249 | 73.09977 | 5990 ft | 267 kts | 257° |
| 2026-04-29 16:39 | 33.43432 | 73.07974 | 5996 ft | 265 kts | 226° |
| 2026-04-29 16:39 | 33.41955 | 73.06637 | 5993 ft | 264 kts | 205° |
| 2026-04-29 16:39 | 33.40187 | 73.06100 | 5992 ft | 261 kts | 180° |
| 2026-04-29 16:40 | 33.38374 | 73.06412 | 5994 ft | 259 kts | 168° |
| 2026-04-29 16:40 | 33.36557 | 73.06712 | 5990 ft | 260 kts | 173° |
| 2026-04-29 16:40 | 33.34746 | 73.06959 | 5990 ft | 260 kts | 172° |
| 2026-04-29 16:40 | 33.32922 | 73.07234 | 5991 ft | 260 kts | 171° |
| 2026-04-29 16:41 | 33.31159 | 73.07728 | 5991 ft | 259 kts | 154° |
| 2026-04-29 16:41 | 33.29749 | 73.09058 | 5995 ft | 257 kts | 125° |
| 2026-04-29 16:41 | 33.28952 | 73.11009 | 5993 ft | 257 kts | 105° |
| 2026-04-29 16:41 | 33.28857 | 73.13130 | 5993 ft | 258 kts | 78° |
| 2026-04-29 16:42 | 33.29655 | 73.15085 | 5998 ft | 260 kts | 52° |
| 2026-04-29 16:42 | 33.31008 | 73.16558 | 5989 ft | 262 kts | 30° |
| 2026-04-29 16:42 | 33.32779 | 73.17100 | 5995 ft | 265 kts | 358° |
| 2026-04-29 16:42 | 33.34561 | 73.16560 | 5992 ft | 267 kts | 332° |
| 2026-04-29 16:43 | 33.35976 | 73.15080 | 5994 ft | 268 kts | 305° |
| 2026-04-29 16:43 | 33.36808 | 73.13049 | 5995 ft | 268 kts | 289° |
| 2026-04-29 16:43 | 33.37411 | 73.10916 | 5990 ft | 269 kts | 289° |
| 2026-04-29 16:43 | 33.38042 | 73.08775 | 5991 ft | 266 kts | 289° |
| 2026-04-29 16:44 | 33.38649 | 73.06698 | 5992 ft | 262 kts | 289° |
| 2026-04-29 16:44 | 33.39254 | 73.04618 | 5968 ft | 255 kts | 288° |
| 2026-04-29 16:44 | 33.39836 | 73.02609 | 5856 ft | 249 kts | 288° |
| 2026-04-29 16:44 | 33.40405 | 73.00639 | 5758 ft | 251 kts | 288° |
| 2026-04-29 16:45 | 33.40984 | 72.98636 | 5657 ft | 252 kts | 288° |
| 2026-04-29 16:45 | 33.41562 | 72.96626 | 5554 ft | 253 kts | 290° |
| 2026-04-29 16:45 | 33.42156 | 72.94583 | 5456 ft | 257 kts | 291° |
| 2026-04-29 16:45 | 33.42742 | 72.92548 | 5353 ft | 255 kts | 290° |
| 2026-04-29 16:46 | 33.43333 | 72.90490 | 5250 ft | 254 kts | 291° |
| 2026-04-29 16:46 | 33.43911 | 72.88483 | 5150 ft | 254 kts | 291° |
| 2026-04-29 16:46 | 33.44494 | 72.86456 | 5048 ft | 254 kts | 291° |
| 2026-04-29 16:46 | 33.45073 | 72.84441 | 4948 ft | 254 kts | 291° |
| 2026-04-29 16:47 | 33.45658 | 72.82404 | 4845 ft | 254 kts | 291° |
| 2026-04-29 16:47 | 33.46240 | 72.80379 | 4744 ft | 253 kts | 291° |
| 2026-04-29 16:47 | 33.46818 | 72.78364 | 4643 ft | 253 kts | 291° |
| 2026-04-29 16:47 | 33.47370 | 72.76441 | 5629 ft | 239 kts | 291° |
| 2026-04-29 16:48 | 33.47989 | 72.74374 | 5291 ft | 290 kts | 292° |
| 2026-04-29 16:48 | 33.48495 | 72.72755 | 4616 ft | 298 kts | 292° |
| 2026-04-29 16:48 | 33.48769 | 72.71897 | 4234 ft | 302 kts | 292° |
| 2026-04-29 16:48 | 33.49485 | 72.69663 | 3932 ft | 282 kts | 293° |
| 2026-04-29 16:49 | 33.50166 | 72.67481 | 3628 ft | 265 kts | 291° |
| 2026-04-29 16:49 | 33.50735 | 72.65513 | 4066 ft | 235 kts | 290° |
| 2026-04-29 16:49 | 33.51250 | 72.63643 | 4086 ft | 229 kts | 290° |
| 2026-04-29 16:49 | 33.51721 | 72.61890 | 4005 ft | 209 kts | 290° |
| 2026-04-29 16:50 | 33.52282 | 72.60352 | 3944 ft | 192 kts | 309° |
| 2026-04-29 16:50 | 33.53305 | 72.59375 | 3884 ft | 184 kts | 338° |
| 2026-04-29 16:50 | 33.54516 | 72.58913 | 3827 ft | 181 kts | 353° |
| 2026-04-29 16:50 | 33.55731 | 72.59095 | 3766 ft | 175 kts | 34° |
| 2026-04-29 16:51 | 33.56536 | 72.60212 | 3805 ft | 177 kts | 56° |
| 2026-04-29 16:51 | 33.57248 | 72.61438 | 3801 ft | 178 kts | 54° |
| 2026-04-29 16:51 | 33.57688 | 72.62831 | 3775 ft | 179 kts | 91° |
| 2026-04-29 16:51 | 33.57505 | 72.64323 | 3804 ft | 181 kts | 95° |
| 2026-04-29 16:52 | 33.57359 | 72.65847 | 3801 ft | 181 kts | 96° |
| 2026-04-29 16:52 | 33.57155 | 72.67361 | 3800 ft | 181 kts | 98° |
| 2026-04-29 16:52 | 33.56929 | 72.68864 | 3755 ft | 183 kts | 98° |
| 2026-04-29 16:52 | 33.56693 | 72.70397 | 3483 ft | 183 kts | 98° |
| 2026-04-29 16:53 | 33.56462 | 72.71899 | 3238 ft | 178 kts | 98° |
| 2026-04-29 16:53 | 33.56238 | 72.73344 | 3002 ft | 168 kts | 98° |
| 2026-04-29 16:53 | 33.56030 | 72.74684 | 2764 ft | 153 kts | 98° |
| 2026-04-29 16:53 | 33.55838 | 72.75932 | 2627 ft | 150 kts | 98° |
| 2026-04-29 16:54 | 33.55644 | 72.77187 | 2402 ft | 150 kts | 98° |
| 2026-04-29 16:54 | 33.55452 | 72.78424 | 2168 ft | 149 kts | 98° |
| 2026-04-29 16:54 | 33.55261 | 72.79649 | 2006 ft | 146 kts | 99° |
| 2026-04-29 16:54 | 33.55069 | 72.80882 | 1800 ft | 151 kts | 98° |
| 2026-04-29 16:55 | 33.54897 | 72.82047 | 1768 ft | 112 kts | 98° |
| 2026-04-29 16:55 | 33.54802 | 72.82649 | 1767 ft | 38 kts | 101° |
| 2026-04-29 16:55 | 33.54774 | 72.82848 | 1767 ft | 21 kts | 98° |
| 2026-04-29 16:55 | 33.54779 | 72.83021 | 1767 ft | 17 kts | 75° |
| 2026-04-29 16:56 | 33.54814 | 72.83147 | 1767 ft | 14 kts | 70° |
| 2026-04-29 16:56 | 33.54844 | 72.83215 | 1767 ft | 7 kts | 52° |
| 2026-04-29 16:56 | 33.54872 | 72.83259 | 1767 ft | 5 kts | 61° |
| 2026-04-29 16:56 | 33.54882 | 72.83312 | 1767 ft | 7 kts | 89° |
| 2026-04-29 16:57 | 33.54877 | 72.83382 | 1767 ft | 9 kts | 95° |
| 2026-04-29 16:57 | 33.54900 | 72.83450 | 1767 ft | 8 kts | 38° |
| 2026-04-29 16:57 | 33.54948 | 72.83469 | 1767 ft | 6 kts | 10° |
| 2026-04-29 16:57 | 33.54997 | 72.83479 | 1767 ft | 7 kts | 10° |
| 2026-04-29 16:58 | 33.55055 | 72.83492 | 1767 ft | 8 kts | 10° |
| 2026-04-29 16:58 | 33.55118 | 72.83506 | 1767 ft | 8 kts | 11° |
| 2026-04-29 16:58 | 33.55180 | 72.83521 | 1767 ft | 9 kts | 10° |
| 2026-04-29 16:58 | 33.55249 | 72.83535 | 1767 ft | 10 kts | 11° |
| 2026-04-29 16:59 | 33.55313 | 72.83535 | 1767 ft | 8 kts | 312° |
| 2026-04-29 16:59 | 33.55328 | 72.83472 | 1767 ft | 7 kts | 279° |
| 2026-04-29 16:59 | 33.55336 | 72.83418 | 1767 ft | 6 kts | 279° |
| 2026-04-29 16:59 | 33.55344 | 72.83360 | 1767 ft | 7 kts | 279° |
| 2026-04-29 17:00 | 33.55347 | 72.83297 | 1767 ft | 7 kts | 259° |
| 2026-04-29 17:00 | 33.55321 | 72.83237 | 1767 ft | 8 kts | 234° |
| 2026-04-29 17:00 | 33.55286 | 72.83177 | 1767 ft | 9 kts | 234° |
| 2026-04-29 17:00 | 33.55254 | 72.83113 | 1767 ft | 8 kts | 270° |
| 2026-04-29 17:01 | 33.55296 | 72.83065 | 1767 ft | 9 kts | 342° |
| 2026-04-29 17:01 | 33.55333 | 72.83041 | 1767 ft | 3 kts | 326° |
| 2026-04-29 17:01 | 33.55335 | 72.83040 | 1767 ft | 0 kts | 326° |